Time,TemperatureF,DewpointF,PressureIn,WindDirection,WindDirectionDegrees,WindSpeedMPH,WindSpeedGustMPH,Humidity,HourlyPrecipIn,Conditions,Clouds,dailyrainin,SoftwareType,DateUTC
2013-11-01 00:10:00,61.4,55.0,29.81,ESE,117,13.0,14.0,78,0.00,,,0.01,weatherlink.com 1.10,2013-11-01 04:10:00,
2013-11-01 00:25:00,61.7,55.0,29.81,NNE,32,0.0,9.0,78,0.00,,,0.01,weatherlink.com 1.10,2013-11-01 04:25:00,
2013-11-01 00:40:00,62.0,55.0,29.80,NNW,341,3.0,10.0,78,0.00,,,0.01,weatherlink.com 1.10,2013-11-01 04:40:00,
2013-11-01 00:55:00,62.2,55.0,29.80,ESE,104,10.0,13.0,78,0.00,,,0.01,weatherlink.com 1.10,2013-11-01 04:55:00,
2013-11-01 01:10:00,62.3,55.0,29.78,ESE,117,5.0,14.0,78,0.01,,,0.02,weatherlink.com 1.10,2013-11-01 05:10:00,
2013-11-01 01:25:00,62.1,56.0,29.78,SE,131,7.0,17.0,79,0.01,,,0.02,weatherlink.com 1.10,2013-11-01 05:25:00,
2013-11-01 01:40:00,62.3,55.0,29.79,SSW,192,5.0,14.0,78,0.01,,,0.02,weatherlink.com 1.10,2013-11-01 05:40:00,
2013-11-01 01:55:00,62.4,55.0,29.79,SE,144,1.0,9.0,78,0.01,,,0.02,weatherlink.com 1.10,2013-11-01 05:55:00,
2013-11-01 02:10:00,62.3,55.0,29.79,SE,126,0.0,11.0,78,0.00,,,0.02,weatherlink.com 1.10,2013-11-01 06:10:00,
2013-11-01 02:25:00,62.2,56.0,29.78,NE,53,0.0,8.0,79,0.00,,,0.02,weatherlink.com 1.10,2013-11-01 06:25:00,
2013-11-01 02:40:00,62.4,55.0,29.78,SSW,209,3.0,11.0,78,0.00,,,0.02,weatherlink.com 1.10,2013-11-01 06:40:00,
2013-11-01 02:55:00,63.0,56.0,29.78,South,174,0.0,13.0,77,0.00,,,0.02,weatherlink.com 1.10,2013-11-01 06:55:00,
2013-11-01 03:10:00,63.1,56.0,29.77,ENE,59,0.0,12.0,77,0.00,,,0.02,weatherlink.com 1.10,2013-11-01 07:10:00,
2013-11-01 03:25:00,63.7,56.0,29.77,ESE,112,8.0,17.0,76,0.00,,,0.02,weatherlink.com 1.10,2013-11-01 07:25:00,
2013-11-01 03:40:00,63.7,56.0,29.77,SSW,193,5.0,18.0,76,0.00,,,0.02,weatherlink.com 1.10,2013-11-01 07:40:00,
2013-11-01 03:55:00,61.6,57.0,29.76,SE,136,4.0,21.0,84,0.00,,,0.02,weatherlink.com 1.10,2013-11-01 07:55:00,
2013-11-01 04:10:00,60.8,57.0,29.76,ESE,104,0.0,16.0,86,0.00,,,0.02,weatherlink.com 1.10,2013-11-01 08:10:00,
2013-11-01 04:25:00,60.5,57.0,29.75,NNW,340,3.0,11.0,87,0.01,,,0.03,weatherlink.com 1.10,2013-11-01 08:25:00,
2013-11-01 04:40:00,60.1,57.0,29.74,North,360,0.0,5.0,89,0.02,,,0.04,weatherlink.com 1.10,2013-11-01 08:40:00,
2013-11-01 04:55:00,59.8,57.0,29.75,NNW,345,0.0,10.0,90,0.02,,,0.04,weatherlink.com 1.10,2013-11-01 08:55:00,
2013-11-01 05:10:00,59.4,57.0,29.74,SSE,161,6.0,11.0,91,0.03,,,0.05,weatherlink.com 1.10,2013-11-01 09:10:00,
2013-11-01 05:25:00,59.2,57.0,29.74,West,259,0.0,9.0,91,0.02,,,0.00,weatherlink.com 1.10,2013-11-01 09:25:00,
2013-11-01 05:40:00,59.4,57.0,29.74,East,83,5.0,11.0,91,0.01,,,0.00,weatherlink.com 1.10,2013-11-01 09:40:00,
2013-11-01 05:55:00,56.3,54.0,29.81,NNW,345,3.0,18.0,92,0.17,,,0.16,weatherlink.com 1.10,2013-11-01 09:55:00,
2013-11-01 06:10:00,55.1,54.0,29.81,WNW,290,1.0,14.0,94,0.21,,,0.21,weatherlink.com 1.10,2013-11-01 10:10:00,
2013-11-01 06:26:00,54.6,53.0,29.82,WNW,293,2.0,9.0,95,0.26,,,0.26,weatherlink.com 1.10,2013-11-01 10:26:00,
2013-11-01 06:41:00,54.2,53.0,29.82,SSW,208,0.0,10.0,95,0.33,,,0.33,weatherlink.com 1.10,2013-11-01 10:41:00,
2013-11-01 06:56:00,53.8,52.0,29.83,North,360,4.0,12.0,94,0.17,,,0.33,weatherlink.com 1.10,2013-11-01 10:56:00,
2013-11-01 07:11:00,53.7,52.0,29.84,NW,317,3.0,7.0,94,0.13,,,0.34,weatherlink.com 1.10,2013-11-01 11:11:00,
2013-11-01 07:26:00,53.5,52.0,29.84,SSE,154,0.0,8.0,94,0.08,,,0.34,weatherlink.com 1.10,2013-11-01 11:26:00,
2013-11-01 07:41:00,53.3,52.0,29.84,NW,311,0.0,11.0,94,0.01,,,0.34,weatherlink.com 1.10,2013-11-01 11:41:00,
2013-11-01 07:56:00,53.1,52.0,29.85,NE,34,1.0,10.0,94,0.01,,,0.34,weatherlink.com 1.10,2013-11-01 11:56:00,
2013-11-01 08:11:00,52.9,51.0,29.86,NNW,329,0.0,10.0,94,0.01,,,0.35,weatherlink.com 1.10,2013-11-01 12:11:00,
2013-11-01 08:41:00,52.8,51.0,29.88,WSW,256,0.0,7.0,94,0.01,,,0.35,weatherlink.com 1.10,2013-11-01 12:41:00,
2013-11-01 08:56:00,52.8,51.0,29.88,NW,318,0.0,7.0,94,0.01,,,0.35,weatherlink.com 1.10,2013-11-01 12:56:00,
2013-11-01 09:11:00,53.0,51.0,29.88,SSW,212,0.0,14.0,94,0.00,,,0.35,weatherlink.com 1.10,2013-11-01 13:11:00,
2013-11-01 09:26:00,53.4,52.0,29.88,ESE,113,0.0,7.0,93,0.00,,,0.35,weatherlink.com 1.10,2013-11-01 13:26:00,
2013-11-01 09:41:00,53.8,52.0,29.88,WNW,300,1.0,7.0,92,0.00,,,0.35,weatherlink.com 1.10,2013-11-01 13:41:00,
2013-11-01 09:56:00,53.8,51.0,29.89,NW,306,3.0,9.0,91,0.00,,,0.35,weatherlink.com 1.10,2013-11-01 13:56:00,
2013-11-01 10:11:00,53.7,51.0,29.89,North,360,0.0,8.0,91,0.00,,,0.35,weatherlink.com 1.10,2013-11-01 14:11:00,
2013-11-01 10:26:00,53.9,51.0,29.89,NW,304,4.0,8.0,90,0.00,,,0.35,weatherlink.com 1.10,2013-11-01 14:26:00,
2013-11-01 10:41:00,54.1,51.0,29.89,NNE,23,2.0,6.0,90,0.00,,,0.35,weatherlink.com 1.10,2013-11-01 14:41:00,
2013-11-01 10:56:00,54.5,51.0,29.89,NNW,344,2.0,9.0,89,0.00,,,0.35,weatherlink.com 1.10,2013-11-01 14:56:00,
2013-11-01 11:11:00,54.7,51.0,29.88,WSW,239,1.0,6.0,88,0.00,,,0.35,weatherlink.com 1.10,2013-11-01 15:11:00,
2013-11-01 11:26:00,55.1,51.0,29.89,West,265,7.0,11.0,86,0.00,,,0.35,weatherlink.com 1.10,2013-11-01 15:26:00,
2013-11-01 11:41:00,55.3,51.0,29.89,WNW,283,0.0,7.0,86,0.00,,,0.35,weatherlink.com 1.10,2013-11-01 15:41:00,
2013-11-01 11:56:00,56.5,52.0,29.88,NW,306,5.0,11.0,85,0.00,,,0.35,weatherlink.com 1.10,2013-11-01 15:56:00,
2013-11-01 12:11:00,57.9,52.0,29.88,NW,326,3.0,10.0,80,0.00,,,0.35,weatherlink.com 1.10,2013-11-01 16:11:00,
2013-11-01 12:26:00,58.5,52.0,29.88,NW,307,0.0,8.0,79,0.00,,,0.35,weatherlink.com 1.10,2013-11-01 16:26:00,
2013-11-01 12:41:00,59.8,52.0,29.87,NNW,333,1.0,6.0,74,0.00,,,0.35,weatherlink.com 1.10,2013-11-01 16:41:00,
2013-11-01 12:56:00,60.1,51.0,29.86,ESE,113,7.0,13.0,71,0.00,,,0.35,weatherlink.com 1.10,2013-11-01 16:56:00,
2013-11-01 13:11:00,60.0,52.0,29.86,West,277,1.0,10.0,74,0.00,,,0.35,weatherlink.com 1.10,2013-11-01 17:11:00,
2013-11-01 13:27:00,60.8,48.0,29.85,NW,306,2.0,6.0,64,0.00,,,0.35,weatherlink.com 1.10,2013-11-01 17:27:00,
2013-11-01 13:41:00,60.3,49.0,29.84,NW,309,0.0,10.0,67,0.00,,,0.35,weatherlink.com 1.10,2013-11-01 17:41:00,
2013-11-01 13:56:00,60.4,48.0,29.83,North,355,2.0,10.0,64,0.00,,,0.35,weatherlink.com 1.10,2013-11-01 17:56:00,
2013-11-01 14:11:00,61.2,50.0,29.82,WNW,302,0.0,10.0,66,0.00,,,0.35,weatherlink.com 1.10,2013-11-01 18:11:00,
2013-11-01 14:26:00,61.8,50.0,29.82,NW,316,1.0,13.0,65,0.00,,,0.35,weatherlink.com 1.10,2013-11-01 18:26:00,
2013-11-01 14:41:00,62.4,48.0,29.82,North,5,0.0,10.0,60,0.00,,,0.35,weatherlink.com 1.10,2013-11-01 18:41:00,
2013-11-01 14:56:00,61.7,47.0,29.81,East,98,3.0,12.0,58,0.00,,,0.35,weatherlink.com 1.10,2013-11-01 18:56:00,
2013-11-01 15:11:00,62.2,47.0,29.81,NNE,25,1.0,8.0,58,0.00,,,0.35,weatherlink.com 1.10,2013-11-01 19:11:00,
2013-11-01 15:26:00,62.0,48.0,29.81,ENE,66,0.0,6.0,60,0.00,,,0.35,weatherlink.com 1.10,2013-11-01 19:26:00,
2013-11-01 15:41:00,62.8,48.0,29.81,WSW,240,0.0,6.0,58,0.00,,,0.35,weatherlink.com 1.10,2013-11-01 19:41:00,
2013-11-01 15:56:00,62.8,47.0,29.81,NNW,346,2.0,6.0,57,0.00,,,0.35,weatherlink.com 1.10,2013-11-01 19:56:00,
2013-11-01 16:11:00,62.4,47.0,29.81,NNW,343,0.0,7.0,57,0.00,,,0.35,weatherlink.com 1.10,2013-11-01 20:11:00,
2013-11-01 16:26:00,62.7,47.0,29.81,North,355,0.0,6.0,58,0.00,,,0.35,weatherlink.com 1.10,2013-11-01 20:26:00,
2013-11-01 16:41:00,62.5,47.0,29.81,WSW,246,0.0,6.0,57,0.00,,,0.35,weatherlink.com 1.10,2013-11-01 20:41:00,
2013-11-01 16:56:00,61.7,47.0,29.81,NNW,338,0.0,1.0,58,0.00,,,0.35,weatherlink.com 1.10,2013-11-01 20:56:00,
2013-11-01 17:11:00,60.7,46.0,29.81,WNW,283,0.0,5.0,59,0.00,,,0.35,weatherlink.com 1.10,2013-11-01 21:11:00,
2013-11-01 17:26:00,60.2,47.0,29.80,WSW,242,1.0,3.0,61,0.00,,,0.35,weatherlink.com 1.10,2013-11-01 21:26:00,
2013-11-01 17:41:00,59.4,47.0,29.80,NNW,344,0.0,3.0,63,0.00,,,0.35,weatherlink.com 1.10,2013-11-01 21:41:00,
2013-11-01 17:56:00,58.0,47.0,29.80,NNW,330,0.0,1.0,66,0.00,,,0.35,weatherlink.com 1.10,2013-11-01 21:56:00,
2013-11-01 18:11:00,55.7,46.0,29.80,NNW,330,0.0,0.0,71,0.00,,,0.35,weatherlink.com 1.10,2013-11-01 22:11:00,
2013-11-01 18:26:00,53.1,46.0,29.81,NNW,330,0.0,0.0,77,0.00,,,0.35,weatherlink.com 1.10,2013-11-01 22:26:00,
2013-11-01 18:41:00,51.4,45.0,29.83,NNW,330,0.0,0.0,80,0.00,,,0.35,weatherlink.com 1.10,2013-11-01 22:41:00,
2013-11-01 18:56:00,50.2,45.0,29.84,NNW,330,0.0,0.0,81,0.00,,,0.35,weatherlink.com 1.10,2013-11-01 22:56:00,
2013-11-01 19:11:00,49.3,44.0,29.84,NNW,330,0.0,0.0,83,0.00,,,0.35,weatherlink.com 1.10,2013-11-01 23:11:00,
2013-11-01 19:26:00,48.5,44.0,29.85,NNW,330,0.0,0.0,84,0.00,,,0.35,weatherlink.com 1.10,2013-11-01 23:26:00,
2013-11-01 19:41:00,47.6,44.0,29.85,NNW,330,0.0,0.0,86,0.00,,,0.35,weatherlink.com 1.10,2013-11-01 23:41:00,
2013-11-01 19:56:00,47.2,44.0,29.86,NNW,330,0.0,0.0,87,0.00,,,0.35,weatherlink.com 1.10,2013-11-01 23:56:00,
2013-11-01 20:11:00,47.3,44.0,29.86,NNW,330,0.0,0.0,88,0.00,,,0.35,weatherlink.com 1.10,2013-11-02 00:11:00,
2013-11-01 20:26:00,47.3,44.0,29.86,NNW,330,0.0,0.0,88,0.00,,,0.35,weatherlink.com 1.10,2013-11-02 00:26:00,
2013-11-01 20:41:00,46.8,43.0,29.87,NNW,330,0.0,0.0,87,0.00,,,0.35,weatherlink.com 1.10,2013-11-02 00:41:00,
2013-11-01 20:56:00,46.6,44.0,29.88,NNW,330,0.0,0.0,89,0.00,,,0.35,weatherlink.com 1.10,2013-11-02 00:56:00,
2013-11-01 21:11:00,46.8,43.0,29.88,NNW,330,0.0,0.0,87,0.00,,,0.35,weatherlink.com 1.10,2013-11-02 01:11:00,
2013-11-01 21:26:00,46.9,44.0,29.88,NNW,330,0.0,0.0,88,0.00,,,0.35,weatherlink.com 1.10,2013-11-02 01:26:00,
2013-11-01 21:41:00,46.4,43.0,29.88,NNW,330,0.0,0.0,87,0.00,,,0.35,weatherlink.com 1.10,2013-11-02 01:41:00,
2013-11-01 21:56:00,46.0,42.0,29.88,NNW,330,0.0,0.0,87,0.00,,,0.35,weatherlink.com 1.10,2013-11-02 01:56:00,
2013-11-01 22:11:00,45.7,43.0,29.88,NE,41,0.0,0.0,89,0.00,,,0.35,weatherlink.com 1.10,2013-11-02 02:11:00,
2013-11-01 22:26:00,45.9,43.0,29.89,NE,41,0.0,0.0,88,0.00,,,0.35,weatherlink.com 1.10,2013-11-02 02:26:00,
2013-11-01 22:41:00,46.5,43.0,29.90,NE,41,0.0,0.0,88,0.00,,,0.35,weatherlink.com 1.10,2013-11-02 02:41:00,
2013-11-01 22:56:00,46.8,44.0,29.90,NE,41,0.0,0.0,89,0.00,,,0.35,weatherlink.com 1.10,2013-11-02 02:56:00,
2013-11-01 23:11:00,46.5,43.0,29.91,NE,41,0.0,0.0,88,0.00,,,0.35,weatherlink.com 1.10,2013-11-02 03:11:00,
2013-11-01 23:27:00,46.1,43.0,29.91,NE,41,0.0,0.0,87,0.00,,,0.35,weatherlink.com 1.10,2013-11-02 03:27:00,
2013-11-01 23:42:00,45.6,43.0,29.91,NE,41,0.0,0.0,89,0.00,,,0.35,weatherlink.com 1.10,2013-11-02 03:42:00,